Time;durP1;ratioP1;P1;durP2;ratioP2;P2;SDS_P1;SDS_P2;PMS_P1;PMS_P2;Temp;Humidity;BMP_temperature;BMP_pressure;BME280_temperature;BME280_humidity;BME280_pressure;Samples;Min_cycle;Max_cycle;Signal;HPM_P1;HPM_P2
2023/10/30 09:20:41;;;;;;;;;;;;;;;;;;;;;
2023/10/30 09:23:28;;;;;;;22.20;7.00;;;;;;;20.69;55.13;99552.27;109385;1273;22005;-83
2023/10/30 09:26:19;;;;;;;14.00;7.50;;;;;;;20.28;55.65;99552.71;109237;1274;21977;-84
2023/10/30 09:29:05;;;;;;;10.60;5.70;;;;;;;20.05;56.96;99548.02;109576;1272;21973;-86
2023/10/30 09:32:02;;;;;;;8.50;4.60;;;;;;;19.94;57.73;99546.23;109436;1271;22047;-87
2023/10/30 09:34:49;;;;;;;6.90;5.10;;;;;;;19.90;58.29;99539.52;107348;1269;3318876;-86
2023/10/30 09:37:28;;;;;;;11.40;5.40;;;;;;;19.93;58.22;99538.15;110218;1262;22697;-85
2023/10/30 09:40:31;;;;;;;7.60;4.70;;;;;;;19.99;58.51;99534.31;109963;1265;21974;-86
2023/10/30 09:43:56;;;;;;;9.20;5.20;;;;;;;20.12;58.34;99531.70;110813;1261;21988;-88
2023/10/30 09:47:21;;;;;;;11.60;5.10;;;;;;;20.32;57.99;99527.64;110564;1261;23685;-86
2023/10/30 09:50:17;;;;;;;14.40;4.80;;;;;;;20.50;57.45;99524.73;110604;1262;22999;-87
2023/10/30 09:53:54;;;;;;;15.10;5.20;;;;;;;20.70;56.92;99526.41;110572;1256;21951;-87
2023/10/30 09:57:40;;;;;;;8.30;4.10;;;;;;;20.88;56.22;99536.22;110856;1261;22062;-88
2023/10/30 10:01:00;;;;;;;11.90;4.60;;;;;;;21.11;55.80;99535.51;110378;1266;21966;-89
2023/10/30 10:04:06;;;;;;;10.30;4.40;;;;;;;21.36;55.39;99538.08;110280;1266;23031;-88
2023/10/30 10:07:48;;;;;;;8.90;3.90;;;;;;;21.59;54.53;99543.33;110200;1266;22456;-87
2023/10/30 10:11:22;;;;;;;;;;;;;;;;;;;;;
2023/10/30 10:14:31;;;;;;;5.40;3.10;;;;;;;21.67;52.47;99545.77;108867;1277;24436;-85
2023/10/30 10:17:29;;;;;;;;;;;;;;;21.84;52.39;99539.11;109113;1277;22029;-85
2023/10/30 10:21:05;;;;;;;;;;;;;;;;;;;;;
2023/10/30 10:24:04;;;;;;;4.80;3.10;;;;;;;22.12;52.03;99529.45;108844;1283;22005;-89
2023/10/30 10:27:07;;;;;;;8.30;3.80;;;;;;;22.30;51.24;99523.13;108751;1283;23071;-86
2023/10/30 10:30:08;;;;;;;6.70;3.80;;;;;;;22.50;50.96;99513.60;108760;1283;21995;-86
2023/10/30 10:33:50;;;;;;;;;;;;;;;;;;;;;
2023/10/30 10:37:15;;;;;;;;;;;;;;;;;;;;;
2023/10/30 10:40:29;;;;;;;6.60;3.90;;;;;;;22.93;49.37;99516.21;109116;1278;22018;-86
2023/10/30 10:43:31;;;;;;;9.80;4.20;;;;;;;23.16;49.41;99509.80;109060;1278;21990;-86
2023/10/30 10:46:40;;;;;;;6.40;3.50;;;;;;;23.43;48.97;99512.11;109221;1274;21992;-86
2023/10/30 10:49:57;;;;;;;5.30;3.20;;;;;;;23.58;47.51;99513.94;110027;1269;22075;-86
2023/10/30 10:56:12;;;;;;;4.90;3.30;;;;;;;23.19;45.96;99490.68;110702;1263;22509;-86
2023/10/30 10:59:16;;;;;;;8.40;3.50;;;;;;;22.95;46.28;99479.80;110370;1263;22758;-87
2023/10/30 11:02:14;;;;;;;5.00;3.00;;;;;;;22.74;46.65;99469.05;110639;1263;23707;-84
2023/10/30 11:05:26;;;;;;;5.40;2.90;;;;;;;22.47;46.60;99471.55;110615;1261;21982;-87
2023/10/30 11:09:06;;;;;;;8.00;4.90;;;;;;;22.17;47.19;99470.52;110907;1261;21973;-87
2023/10/30 11:12:24;;;;;;;6.90;2.70;;;;;;;21.86;47.94;99461.54;110871;1261;23705;-87
2023/10/30 11:16:04;;;;;;;6.40;3.10;;;;;;;21.56;48.36;99453.34;111351;1256;23124;-86
2023/10/30 11:19:15;;;;;;;6.00;2.50;;;;;;;21.18;48.78;99445.01;110876;1261;21963;-85
2023/10/30 11:23:12;;;;;;;8.10;3.80;;;;;;;20.85;49.87;99440.63;110159;1268;23033;-86
2023/10/30 11:26:54;;;;;;;8.50;4.90;;;;;;;20.59;50.85;99431.59;109160;1271;22009;-87
2023/10/30 11:30:17;;;;;;;4.70;2.90;;;;;;;20.36;51.30;99434.60;109099;1278;22045;-88
2023/10/30 11:33:32;;;;;;;5.70;2.40;;;;;;;20.14;51.70;99428.92;108792;1281;22011;-87
2023/10/30 11:36:28;;;;;;;4.80;2.50;;;;;;;19.97;52.26;99420.55;108779;1283;23052;-86
2023/10/30 11:39:27;;;;;;;6.70;3.80;;;;;;;19.87;52.44;99418.89;108671;1284;22018;-87
2023/10/30 11:42:27;;;;;;;3.50;2.70;;;;;;;19.78;52.99;99430.96;108583;1284;22103;-85
2023/10/30 11:45:40;;;;;;;6.00;3.00;;;;;;;19.72;52.96;99438.40;108991;1279;23726;-86
2023/10/30 11:53:32;;;;;;;6.30;2.90;;;;;;;19.70;53.46;99445.56;109852;1270;23124;-86
2023/10/30 11:56:17;;;;;;;5.10;2.90;;;;;;;19.61;53.83;99458.73;108314;1284;23655;-86
2023/10/30 11:59:46;;;;;;;8.40;3.60;;;;;;;19.78;53.88;99465.58;107962;1292;545996;-85
2023/10/30 12:06:02;;;;;;;5.60;3.20;;;;;;;19.57;54.46;99446.02;110508;1259;22524;-81
2023/10/30 12:08:51;;;;;;;5.70;3.20;;;;;;;19.54;54.80;99441.77;110334;1263;23001;-83
2023/10/30 12:12:06;;;;;;;7.00;3.40;;;;;;;19.44;54.95;99445.92;108669;1261;3455473;-84
2023/10/30 12:14:59;;;;;;;5.80;3.40;;;;;;;19.24;55.44;99428.14;110721;1261;23064;-82
2023/10/30 12:17:55;;;;;;;5.60;4.00;;;;;;;19.27;55.69;99444.66;110736;1250;21967;-82
2023/10/30 12:21:11;;;;;;;6.20;4.30;;;;;;;19.27;55.94;99450.33;110740;1255;21974;-83
2023/10/30 12:24:17;;;;;;;;;;;;;;;;;;;;;
2023/10/30 12:27:31;;;;;;;5.20;3.40;;;;;;;19.19;56.47;99448.57;110805;1260;21969;-82
2023/10/30 12:30:42;;;;;;;8.10;3.30;;;;;;;19.13;56.62;99445.23;110232;1266;21990;-84
2023/10/30 12:33:26;;;;;;;14.20;3.10;;;;;;;19.08;56.67;99433.80;110341;1266;21976;-82
2023/10/30 12:36:33;;;;;;;11.00;3.00;;;;;;;19.06;56.86;99431.86;110447;1266;23590;-83
2023/10/30 12:39:30;;;;;;;4.60;2.90;;;;;;;19.06;56.98;99426.41;110262;1266;23599;-83
2023/10/30 12:42:38;;;;;;;6.30;3.90;;;;;;;19.03;56.93;99428.81;110661;1260;22941;-84
2023/10/30 12:45:28;;;;;;;6.90;4.40;;;;;;;19.00;57.13;99424.33;110823;1260;22039;-83
2023/10/30 12:48:17;;;;;;;7.40;3.20;;;;;;;18.98;57.37;99419.02;110837;1255;23820;-83
2023/10/30 12:51:10;;;;;;;12.70;3.00;;;;;;;18.94;57.64;99414.92;111279;1255;22189;-82
2023/10/30 12:53:58;;;;;;;6.80;3.20;;;;;;;18.92;57.71;99409.47;110994;1255;21966;-83
2023/10/30 12:56:51;;;;;;;5.20;3.40;;;;;;;18.92;58.10;99410.02;111316;1255;21960;-83
2023/10/30 12:59:34;;;;;;;7.40;4.00;;;;;;;18.90;58.03;99405.06;111261;1255;21961;-84
2023/10/30 13:02:29;;;;;;;;;;;;;;;;;;;;;
2023/10/30 13:05:23;;;;;;;;;;;;;;;;;;;;;
2023/10/30 13:08:32;;;;;;;11.20;3.70;;;;;;;18.86;58.80;99398.52;111382;1245;21974;-83
2023/10/30 13:11:24;;;;;;;13.30;5.90;;;;;;;18.87;58.74;99401.98;110825;1260;23729;-83
2023/10/30 13:14:11;;;;;;;8.20;4.20;;;;;;;18.88;58.99;99393.28;111035;1260;21965;-84
2023/10/30 13:17:00;;;;;;;6.10;3.80;;;;;;;18.90;59.09;99393.77;110490;1264;21990;-83
2023/10/30 13:19:45;;;;;;;8.50;3.40;;;;;;;18.91;59.20;99391.36;110716;1267;23695;-83
2023/10/30 13:22:57;;;;;;;12.20;4.60;;;;;;;18.90;59.09;99387.41;110437;1267;21980;-83
2023/10/30 13:25:46;;;;;;;9.40;4.20;;;;;;;18.90;59.38;99389.21;109979;1272;22429;-83
2023/10/30 13:28:30;;;;;;;7.40;3.50;;;;;;;18.92;59.36;99391.28;109851;1273;21962;-83
2023/10/30 13:31:14;;;;;;;6.20;3.70;;;;;;;18.91;58.84;99395.63;109529;1273;21983;-84
2023/10/30 13:34:16;;;;;;;9.00;4.20;;;;;;;18.89;58.65;99397.02;109664;1268;22348;-83
2023/10/30 13:37:37;;;;;;;13.90;7.70;;;;;;;18.86;58.40;99401.85;110169;1266;21985;-83
2023/10/30 13:40:27;;;;;;;12.20;6.50;;;;;;;18.86;58.19;99396.08;110177;1269;21994;-81
2023/10/30 13:43:18;;;;;;;9.50;5.00;;;;;;;18.88;58.37;99392.73;110181;1265;21965;-84
2023/10/30 13:45:57;;;;;;;10.10;4.30;;;;;;;18.87;58.28;99390.71;109935;1269;22054;-81
2023/10/30 13:48:39;;;;;;;15.50;5.10;;;;;;;18.83;58.43;99386.27;109721;1270;23036;-83
2023/10/30 13:51:49;;;;;;;14.80;8.80;;;;;;;18.75;58.66;99383.77;109887;1269;22026;-83
2023/10/30 13:54:36;;;;;;;13.70;5.20;;;;;;;18.74;58.83;99382.64;109842;1263;21980;-83
2023/10/30 13:57:20;;;;;;;11.60;5.30;;;;;;;18.70;59.12;99384.60;110385;1263;23758;-83
2023/10/30 13:59:53;;;;;;;10.70;5.70;;;;;;;18.55;59.14;99369.43;110842;1260;23122;-84
2023/10/30 14:02:38;;;;;;;20.80;6.20;;;;;;;18.62;59.42;99383.53;109975;1264;21981;-82
2023/10/30 14:05:29;;;;;;;6.20;4.20;;;;;;;18.54;59.56;99380.16;110630;1264;21975;-85
2023/10/30 14:08:19;;;;;;;12.50;5.80;;;;;;;18.55;59.43;99388.29;110749;1263;23213;-82
2023/10/30 14:11:01;;;;;;;10.10;5.30;;;;;;;18.54;59.65;99385.23;110708;1263;22730;-85
2023/10/30 14:14:17;;;;;;;7.30;4.80;;;;;;;18.48;59.52;99387.86;110642;1264;21999;-84
2023/10/30 14:16:51;;;;;;;10.50;6.20;;;;;;;18.45;59.62;99382.45;110684;1261;23596;-85
2023/10/30 14:19:35;;;;;;;22.50;17.80;;;;;;;18.45;59.84;99381.09;110782;1264;22031;-84
2023/10/30 14:22:13;;;;;;;15.30;10.60;;;;;;;18.43;59.90;99377.02;111148;1261;22025;-84
2023/10/30 14:25:29;;;;;;;;;;;;;;;;;;;;;
2023/10/30 14:28:42;;;;;;;13.70;7.20;;;;;;;18.33;59.89;99381.92;111028;1261;23612;-85
2023/10/30 14:31:27;;;;;;;15.30;6.00;;;;;;;18.32;60.02;99381.45;110473;1265;21990;-82
2023/10/30 14:34:04;;;;;;;12.00;5.80;;;;;;;18.30;60.23;99381.30;109633;1273;21998;-84
2023/10/30 14:36:36;;;;;;;7.30;5.50;;;;;;;18.28;60.43;99384.65;109712;1272;23644;-82
2023/10/30 14:39:14;;;;;;;13.80;4.60;;;;;;;18.24;60.69;99383.93;109314;1278;22138;-83
2023/10/30 14:42:13;;;;;;;11.70;5.90;;;;;;;18.16;60.97;99377.91;108937;1279;24333;-89
2023/10/30 14:45:19;;;;;;;12.10;6.60;;;;;;;18.11;61.45;99383.10;108801;1277;22686;-85
2023/10/30 14:48:43;;;;;;;15.30;6.70;;;;;;;18.02;62.02;99381.53;108829;1279;22290;-86
2023/10/30 14:51:30;;;;;;;24.70;9.00;;;;;;;17.91;62.43;99362.73;108936;1277;23640;-81
2023/10/30 14:54:00;;;;;;;24.40;9.40;;;;;;;18.00;62.85;99373.11;108980;1279;21992;-80
2023/10/30 14:56:38;;;;;;;23.00;15.70;;;;;;;17.98;63.15;99370.60;108842;1279;22758;-81
2023/10/30 14:59:41;;;;;;;16.60;10.30;;;;;;;17.93;63.43;99376.83;109502;1272;22004;-81
2023/10/30 15:02:41;;;;;;;17.70;10.40;;;;;;;17.83;63.83;99382.77;110058;1268;23003;-80
2023/10/30 15:05:31;;;;;;;27.40;10.50;;;;;;;17.77;64.21;99385.03;110801;1267;22329;-82
2023/10/30 15:08:27;;;;;;;38.90;13.00;;;;;;;17.66;64.61;99383.27;110693;1266;22019;-82
2023/10/30 15:11:54;;;;;;;;;;;;;;;17.53;65.41;99383.52;110377;1267;21958;-82
2023/10/30 15:14:31;;;;;;;16.80;10.30;;;;;;;17.34;66.31;99388.70;110685;1262;21970;-79
2023/10/30 15:17:11;;;;;;;23.60;13.40;;;;;;;17.33;66.75;99386.70;110927;1263;23720;-81
2023/10/30 15:20:07;;;;;;;33.90;14.50;;;;;;;17.29;67.29;99378.72;111214;1259;22181;-81
2023/10/30 15:23:05;;;;;;;29.00;17.40;;;;;;;17.26;67.73;99380.69;110991;1259;21978;-80
2023/10/30 15:25:52;;;;;;;35.60;24.40;;;;;;;17.11;68.55;99363.64;111482;1257;22392;-80
2023/10/30 15:28:29;;;;;;;55.10;43.60;;;;;;;17.09;69.24;99361.73;111454;1256;21978;-80
2023/10/30 15:31:14;;;;;;;37.10;30.00;;;;;;;17.13;69.77;99369.33;111249;1257;21981;-82
2023/10/30 15:33:56;;;;;;;41.10;25.00;;;;;;;17.08;70.31;99367.61;111262;1256;23784;-80
2023/10/30 15:36:37;;;;;;;32.40;24.90;;;;;;;17.02;70.81;99368.45;111485;1256;21985;-83
2023/10/30 15:39:15;;;;;;;47.70;28.30;;;;;;;16.94;71.18;99362.35;111052;1256;23018;-81
2023/10/30 15:42:27;;;;;;;36.30;20.40;;;;;;;16.87;71.67;99360.14;110981;1257;23094;-80
2023/10/30 15:45:20;;;;;;;33.10;19.80;;;;;;;16.74;72.40;99362.33;111164;1256;23464;-83
2023/10/30 15:48:32;;;;;;;36.00;22.00;;;;;;;16.67;73.14;99357.15;111127;1256;21977;-82
2023/10/30 15:51:25;;;;;;;40.20;20.40;;;;;;;16.61;73.87;99360.39;110778;1261;21972;-82
2023/10/30 15:54:53;;;;;;;40.60;21.30;;;;;;;16.52;74.63;99361.65;110696;1264;21973;-81
2023/10/30 15:57:49;;;;;;;42.20;23.10;;;;;;;16.43;75.28;99350.95;110071;1268;21997;-84
2023/10/30 16:00:43;;;;;;;36.30;19.20;;;;;;;16.46;76.07;99356.08;109964;1268;21984;-82
2023/10/30 16:03:20;;;;;;;47.60;21.80;;;;;;;16.45;76.49;99364.80;109947;1268;21983;-83
2023/10/30 16:06:11;;;;;;;43.30;22.80;;;;;;;16.40;76.84;99363.24;110094;1268;21988;-81
2023/10/30 16:09:09;;;;;;;48.40;24.70;;;;;;;16.23;77.28;99346.11;110337;1261;23060;-81
2023/10/30 16:12:14;;;;;;;37.90;22.90;;;;;;;16.28;77.82;99366.69;110822;1261;23049;-79
2023/10/30 16:15:49;;;;;;;28.20;18.80;;;;;;;16.14;78.44;99373.04;110707;1265;22909;-82
2023/10/30 16:19:02;;;;;;;24.90;16.20;;;;;;;16.06;79.33;99373.42;110231;1264;21987;-81
2023/10/30 16:23:17;;;;;;;25.60;18.20;;;;;;;15.96;80.06;99364.33;110302;1267;23037;-80
2023/10/30 16:26:11;;;;;;;38.00;21.50;;;;;;;15.99;80.65;99361.11;110028;1268;23704;-82
2023/10/30 16:28:41;;;;;;;38.20;22.80;;;;;;;16.01;81.14;99362.52;109746;1269;22515;-81
2023/10/30 16:31:19;;;;;;;39.20;24.20;;;;;;;15.93;81.37;99343.34;110086;1268;24572;-82
2023/10/30 16:34:03;;;;;;;32.30;21.30;;;;;;;15.98;81.60;99353.98;110385;1264;22785;-81
2023/10/30 16:36:46;;;;;;;39.60;22.50;;;;;;;15.96;81.88;99352.77;109974;1269;22003;-81
2023/10/30 16:39:18;;;;;;;34.40;22.10;;;;;;;15.85;82.18;99343.21;110201;1266;22012;-83
2023/10/30 16:43:17;;;;;;;37.90;27.40;;;;;;;15.75;82.41;99333.14;110484;1265;21955;-81
2023/10/30 16:45:39;;;;;;;65.60;58.40;;;;;;;15.80;82.72;99347.63;110215;1265;22011;-80
2023/10/30 16:48:43;;;;;;;60.40;47.80;;;;;;;15.70;83.16;99333.15;110605;1265;21996;-80
2023/10/30 16:51:16;;;;;;;69.00;51.20;;;;;;;15.76;83.57;99341.84;110648;1258;21970;-81
2023/10/30 16:53:55;;;;;;;64.30;47.40;;;;;;;15.76;83.83;99345.68;110705;1262;22304;-83
2023/10/30 16:56:33;;;;;;;69.90;50.10;;;;;;;15.77;84.36;99357.71;110650;1262;21997;-84
2023/10/30 16:59:06;;;;;;;71.00;50.10;;;;;;;15.74;84.44;99359.30;110975;1262;21973;-85
2023/10/30 17:01:50;;;;;;;68.10;43.60;;;;;;;15.71;84.83;99357.60;111023;1259;23664;-84
2023/10/30 17:08:05;;;;;;;65.70;42.80;;;;;;;15.57;85.69;99328.16;111992;1256;21981;-85
2023/10/30 17:11:15;;;;;;;62.40;41.50;;;;;;;15.58;86.24;99333.64;111367;1263;22115;-85
2023/10/30 17:13:55;;;;;;;85.30;59.60;;;;;;;15.57;86.72;99337.02;111057;1265;21998;-87
2023/10/30 17:17:00;;;;;;;88.70;60.50;;;;;;;15.59;87.24;99336.39;110550;1267;22049;-85
2023/10/30 17:19:47;;;;;;;89.50;62.80;;;;;;;15.58;87.54;99338.58;110190;1274;22449;-86
2023/10/30 17:22:34;;;;;;;99.90;63.00;;;;;;;15.58;87.80;99339.61;109938;1277;22007;-84
2023/10/30 17:25:39;;;;;;;79.20;52.20;;;;;;;15.58;88.22;99333.50;109432;1277;21888;-82
2023/10/30 17:28:24;;;;;;;87.80;60.20;;;;;;;15.59;88.76;99334.09;109616;1274;21994;-84
2023/10/30 17:31:50;;;;;;;92.40;60.50;;;;;;;15.57;89.08;99328.27;109731;1272;22502;-79
2023/10/30 17:34:51;;;;;;;94.00;66.70;;;;;;;15.56;89.56;99330.44;109730;1272;22023;-83
2023/10/30 17:37:34;;;;;;;78.40;61.10;;;;;;;15.54;89.87;99331.90;109464;1270;23040;-80
2023/10/30 17:40:25;;;;;;;65.70;56.20;;;;;;;15.45;90.10;99322.20;109403;1270;21979;-79
2023/10/30 17:43:59;;;;;;;;;;;;;;;;;;;;;
2023/10/30 17:46:36;;;;;;;44.10;36.00;;;;;;;15.42;91.19;99324.13;109607;1273;23742;-82
2023/10/30 17:49:20;;;;;;;44.50;35.50;;;;;;;15.42;91.60;99320.83;109765;1272;22075;-81
2023/10/30 17:51:53;;;;;;;48.80;36.60;;;;;;;15.35;91.86;99309.41;110000;1269;21997;-83
2023/10/30 17:54:29;;;;;;;87.30;70.20;;;;;;;15.40;92.21;99317.27;110591;1266;23046;-81
2023/10/30 17:57:15;;;;;;;145.70;118.20;;;;;;;15.31;92.52;99309.17;110857;1260;21971;-82
2023/10/30 18:00:33;;;;;;;;;;;;;;;;;;;;;
2023/10/30 18:03:50;;;;;;;97.30;74.90;;;;;;;15.34;93.58;99308.61;111149;1260;23021;-81
2023/10/30 18:12:59;;;;;;;91.50;72.30;;;;;;;15.26;94.99;99305.50;111811;1256;22020;-80
2023/10/30 18:15:51;;;;;;;54.00;38.30;;;;;;;15.21;95.41;99283.14;111495;1256;23744;-80
2023/10/30 18:18:25;;;;;;;53.70;39.50;;;;;;;15.33;95.64;99304.98;111302;1243;22010;-79
2023/10/30 18:21:25;;;;;;;45.70;37.00;;;;;;;15.35;95.88;99299.23;110962;1261;22074;-84
2023/10/30 18:24:28;;;;;;;36.10;29.20;;;;;;;15.36;96.08;99289.91;110544;1265;21986;-82
2023/10/30 18:28:07;;;;;;;38.60;28.70;;;;;;;15.32;96.34;99284.95;109734;1262;23035;-79
2023/10/30 18:31:01;;;;;;;37.20;26.10;;;;;;;15.29;96.52;99273.77;110032;1271;22000;-83
2023/10/30 18:33:41;;;;;;;31.90;24.70;;;;;;;15.30;96.71;99267.04;110524;1271;21998;-84
2023/10/30 18:36:29;;;;;;;32.80;24.40;;;;;;;15.29;97.13;99267.09;109381;1274;22798;-82
2023/10/30 18:39:08;;;;;;;38.10;27.90;;;;;;;15.26;97.34;99267.48;109675;1271;21989;-81
2023/10/30 18:42:00;;;;;;;36.00;26.30;;;;;;;15.24;97.74;99266.96;109640;1271;22074;-82
2023/10/30 18:44:31;;;;;;;39.20;31.00;;;;;;;15.21;98.15;99265.91;109412;1271;23022;-79
2023/10/30 18:47:09;;;;;;;39.80;31.40;;;;;;;15.20;98.48;99257.80;109621;1271;21976;-81
2023/10/30 18:50:04;;;;;;;38.30;30.40;;;;;;;15.17;98.81;99254.30;110336;1266;24347;-80
2023/10/30 18:53:06;;;;;;;47.10;32.60;;;;;;;15.15;99.14;99250.80;110348;1267;23029;-81
2023/10/30 18:56:49;;;;;;;42.10;33.60;;;;;;;15.07;99.72;99245.45;110853;1261;23188;-78
2023/10/30 19:00:03;;;;;;;47.30;35.30;;;;;;;15.03;99.99;99234.66;111114;1257;22043;-80
2023/10/30 19:02:52;;;;;;;48.40;37.30;;;;;;;15.02;100.00;99227.58;110382;1263;22745;-79
2023/10/30 19:05:52;;;;;;;67.90;43.70;;;;;;;15.01;100.00;99220.08;110090;1268;23049;-82
2023/10/30 19:08:38;;;;;;;61.00;42.30;;;;;;;15.00;100.00;99222.47;110026;1268;22666;-81
2023/10/30 19:11:59;;;;;;;63.10;41.20;;;;;;;14.98;100.00;99220.91;109630;1273;22848;-81
2023/10/30 19:15:19;;;;;;;72.50;45.20;;;;;;;14.95;100.00;99225.64;109108;1278;22005;-80
2023/10/30 19:18:13;;;;;;;59.00;38.80;;;;;;;14.93;100.00;99221.43;109136;1278;24395;-79
2023/10/30 19:22:01;;;;;;;41.20;24.40;;;;;;;14.94;100.00;99215.70;109312;1273;22030;-80
2023/10/30 19:25:18;;;;;;;54.60;33.50;;;;;;;14.87;100.00;99200.30;109112;1278;23653;-79
2023/10/30 19:28:26;;;;;;;74.10;45.20;;;;;;;14.88;100.00;99196.37;109257;1277;22010;-80
2023/10/30 19:31:49;;;;;;;38.50;25.70;;;;;;;14.98;100.00;99203.88;109113;1280;21971;-80
2023/10/30 19:35:55;;;;;;;100.70;84.00;;;;;;;14.99;100.00;99199.71;108674;1283;23625;-80
2023/10/30 19:39:15;;;;;;;64.00;35.60;;;;;;;15.00;100.00;99189.71;108299;1287;21996;-82
2023/10/30 19:42:00;;;;;;;39.00;22.70;;;;;;;15.02;100.00;99190.21;107955;1294;22593;-80
2023/10/30 19:44:46;;;;;;;66.70;33.50;;;;;;;15.05;100.00;99184.45;107783;1293;22021;-80
2023/10/30 19:47:26;;;;;;;;;;;;;;;;;;;;;
2023/10/30 19:50:21;;;;;;;55.40;32.20;;;;;;;15.10;100.00;99176.91;108268;1284;22310;-79
2023/10/30 19:53:12;;;;;;;53.20;30.10;;;;;;;15.09;100.00;99172.04;108674;1285;23055;-82
2023/10/30 19:56:41;;;;;;;52.70;28.30;;;;;;;15.07;100.00;99165.36;108791;1284;22011;-80
2023/10/30 20:00:11;;;;;;;65.00;37.10;;;;;;;15.06;100.00;99171.40;109234;1279;21983;-81
2023/10/30 20:03:00;;;;;;;;;;;;;;;;;;;;;
2023/10/30 20:09:55;;;;;;;58.10;34.40;;;;;;;15.09;100.00;99161.02;109542;1275;22016;-81
2023/10/30 20:17:25;;;;;;;29.00;20.20;;;;;;;15.06;100.00;99147.39;109227;1274;21992;-81
2023/10/30 20:20:44;;;;;;;44.00;27.80;;;;;;;15.04;100.00;99138.42;109958;1269;24312;-81
2023/10/30 20:23:32;;;;;;;31.20;23.20;;;;;;;15.05;100.00;99132.55;110192;1269;23689;-80
2023/10/30 20:26:26;;;;;;;34.80;20.80;;;;;;;15.06;100.00;99125.13;110156;1269;21998;-80
2023/10/30 20:29:27;;;;;;;31.10;21.60;;;;;;;15.05;100.00;99121.38;109836;1258;21979;-80
2023/10/30 20:32:48;;;;;;;41.80;27.80;;;;;;;15.04;100.00;99113.91;110329;1269;21988;-80
2023/10/30 20:35:56;;;;;;;34.30;24.80;;;;;;;15.04;100.00;99107.56;109780;1271;22569;-80
2023/10/30 20:38:48;;;;;;;41.90;29.60;;;;;;;15.02;100.00;99100.75;110110;1270;22006;-81
2023/10/30 20:41:37;;;;;;;37.80;25.40;;;;;;;14.98;100.00;99097.56;110772;1265;23727;-82
2023/10/30 20:44:37;;;;;;;38.80;27.90;;;;;;;14.95;100.00;99093.90;110948;1263;21996;-79
2023/10/30 20:47:11;;;;;;;31.90;22.50;;;;;;;14.96;100.00;99089.26;110729;1263;22333;-80
2023/10/30 20:50:01;;;;;;;28.90;20.40;;;;;;;14.95;100.00;99084.59;110918;1264;23728;-79
2023/10/30 20:52:47;;;;;;;24.80;17.60;;;;;;;14.92;100.00;99076.80;110510;1264;21974;-80
2023/10/30 20:55:27;;;;;;;44.10;30.30;;;;;;;14.88;100.00;99069.58;111119;1258;23717;-79
2023/10/30 20:57:59;;;;;;;32.30;22.90;;;;;;;14.82;100.00;99058.83;111405;1257;21960;-79
2023/10/30 21:00:43;;;;;;;27.80;19.40;;;;;;;14.77;100.00;99050.27;110603;1263;21958;-80
2023/10/30 21:03:20;;;;;;;42.40;27.80;;;;;;;14.72;100.00;99048.89;110697;1263;22026;-80
2023/10/30 21:05:57;;;;;;;34.50;19.30;;;;;;;14.67;100.00;99042.08;110549;1263;23000;-79
2023/10/30 21:08:45;;;;;;;29.40;20.10;;;;;;;14.63;100.00;99035.57;110990;1257;23699;-80
2023/10/30 21:11:27;;;;;;;36.10;23.30;;;;;;;14.56;100.00;99028.00;110174;1267;21996;-80
2023/10/30 21:14:12;;;;;;;31.20;20.10;;;;;;;14.51;100.00;99022.11;109930;1270;21939;-79
2023/10/30 21:17:13;;;;;;;29.90;19.40;;;;;;;14.45;100.00;99013.03;109478;1268;23606;-80
2023/10/30 21:19:57;;;;;;;43.80;26.60;;;;;;;14.43;100.00;99012.88;109931;1266;22206;-79
2023/10/30 21:22:34;;;;;;;53.70;32.40;;;;;;;14.38;100.00;99007.11;110552;1266;23757;-80
2023/10/30 21:25:33;;;;;;;48.20;29.70;;;;;;;14.34;100.00;99000.44;110149;1269;21992;-80
2023/10/30 21:28:14;;;;;;;49.20;29.20;;;;;;;14.31;100.00;98996.44;109847;1269;22159;-80
2023/10/30 21:30:46;;;;;;;50.30;29.50;;;;;;;14.29;100.00;98990.98;109915;1269;22252;-80
2023/10/30 21:33:31;;;;;;;42.40;26.00;;;;;;;14.27;100.00;98986.73;110310;1266;24211;-81
2023/10/30 21:36:28;;;;;;;34.40;21.60;;;;;;;14.25;100.00;98980.45;110337;1265;22011;-79
2023/10/30 21:39:19;;;;;;;27.20;18.20;;;;;;;14.22;100.00;98981.35;110387;1266;22897;-79
2023/10/30 21:42:10;;;;;;;49.10;29.30;;;;;;;14.20;100.00;98984.13;110390;1262;22030;-79
2023/10/30 21:44:48;;;;;;;28.10;20.00;;;;;;;14.18;100.00;98980.39;111204;1257;21983;-80
2023/10/30 21:47:19;;;;;;;33.90;20.50;;;;;;;14.18;100.00;98979.55;111072;1257;22035;-80
2023/10/30 21:50:02;;;;;;;27.90;16.10;;;;;;;14.18;100.00;98973.83;111022;1257;23029;-81
2023/10/30 21:52:40;;;;;;;28.40;18.20;;;;;;;14.15;100.00;98967.87;110758;1260;23749;-80
2023/10/30 21:55:17;;;;;;;27.90;17.60;;;;;;;14.13;100.00;98959.98;110849;1261;21992;-80
2023/10/30 21:57:57;;;;;;;28.60;18.10;;;;;;;14.12;100.00;98956.05;110852;1261;21988;-81
2023/10/30 22:00:32;;;;;;;25.40;16.30;;;;;;;14.10;100.00;98945.38;110841;1261;21972;-82
2023/10/30 22:03:12;;;;;;;28.40;17.70;;;;;;;14.10;100.00;98940.48;110781;1261;22268;-81
2023/10/30 22:05:51;;;;;;;24.70;15.40;;;;;;;14.08;100.00;98941.33;110798;1261;21980;-78
2023/10/30 22:08:27;;;;;;;26.60;15.40;;;;;;;14.07;100.00;98934.90;110822;1261;21971;-78
2023/10/30 22:11:05;;;;;;;22.90;13.90;;;;;;;14.01;100.00;98920.85;110389;1264;21992;-80
2023/10/30 22:13:38;;;;;;;20.00;13.70;;;;;;;14.04;100.00;98911.17;110535;1263;22072;-79
2023/10/30 22:16:10;;;;;;;;;;;;;;;14.13;100.00;98917.63;110727;1264;21952;-79
2023/10/30 22:19:05;;;;;;;24.10;14.80;;;;;;;14.06;100.00;98914.48;110643;1261;23034;-80
2023/10/30 22:21:42;;;;;;;29.20;15.30;;;;;;;14.09;100.00;98907.64;109928;1271;22140;-80
2023/10/30 22:24:15;;;;;;;21.20;13.80;;;;;;;14.14;100.00;98902.02;109855;1269;23804;-79
2023/10/30 22:26:54;;;;;;;19.60;11.30;;;;;;;14.17;100.00;98896.36;110053;1270;23795;-80
2023/10/30 22:29:32;;;;;;;24.00;12.50;;;;;;;14.20;100.00;98892.42;110113;1266;22662;-79
2023/10/30 22:32:13;;;;;;;16.70;10.30;;;;;;;14.14;100.00;98873.66;110245;1267;22175;-79
2023/10/30 22:35:14;;;;;;;23.90;13.50;;;;;;;14.18;100.00;98871.48;110291;1266;21983;-79
2023/10/30 22:37:44;;;;;;;22.90;14.90;;;;;;;14.31;100.00;98881.30;110322;1266;22455;-80
2023/10/30 22:40:31;;;;;;;28.20;17.20;;;;;;;14.33;100.00;98875.86;110576;1263;23251;-79
2023/10/30 22:43:21;;;;;;;13.60;10.20;;;;;;;14.33;100.00;98856.30;110815;1262;24320;-79
2023/10/30 22:46:01;;;;;;;16.90;11.80;;;;;;;14.38;100.00;98859.23;110772;1262;22927;-78
2023/10/30 22:48:35;;;;;;;21.80;14.80;;;;;;;14.41;100.00;98850.45;110750;1263;23413;-80
2023/10/30 22:51:08;;;;;;;16.50;9.90;;;;;;;14.44;100.00;98840.91;110774;1259;23574;-78
2023/10/30 22:53:56;;;;;;;24.00;14.20;;;;;;;14.49;100.00;98833.88;110825;1259;22303;-80
2023/10/30 22:56:30;;;;;;;23.40;13.10;;;;;;;14.51;100.00;98823.73;110687;1259;22008;-79
2023/10/30 22:59:18;;;;;;;17.30;11.50;;;;;;;14.52;100.00;98812.27;110934;1260;22038;-82
2023/10/30 23:02:00;;;;;;;27.60;16.00;;;;;;;14.55;100.00;98808.05;110821;1260;22726;-79
2023/10/30 23:04:46;;;;;;;26.00;13.70;;;;;;;14.57;100.00;98805.45;110844;1260;23034;-80
2023/10/30 23:07:27;;;;;;;23.10;14.00;;;;;;;14.59;100.00;98800.70;110686;1260;21943;-80
2023/10/30 23:10:09;;;;;;;23.20;13.20;;;;;;;14.59;100.00;98789.36;110974;1257;21982;-79
2023/10/30 23:12:55;;;;;;;19.50;12.30;;;;;;;14.61;100.00;98779.97;110574;1262;23021;-80
2023/10/30 23:15:48;;;;;;;33.10;14.90;;;;;;;14.64;100.00;98781.61;110841;1262;21972;-79
2023/10/30 23:18:33;;;;;;;31.70;17.40;;;;;;;14.60;100.00;98774.22;110453;1262;23732;-78
2023/10/30 23:21:19;;;;;;;22.60;12.70;;;;;;;14.69;100.00;98771.95;110814;1262;21991;-79
2023/10/30 23:24:01;;;;;;;23.20;13.90;;;;;;;14.70;100.00;98767.14;110096;1262;22233;-79
2023/10/30 23:26:37;;;;;;;19.00;11.80;;;;;;;14.75;100.00;98762.37;109439;1269;22022;-78
2023/10/30 23:29:14;;;;;;;17.30;10.00;;;;;;;14.77;100.00;98758.29;109478;1270;21981;-79
2023/10/30 23:31:49;;;;;;;17.40;9.80;;;;;;;14.81;100.00;98755.92;110035;1265;22029;-79